sensor_id;sensor_type;location;lat;lon;timestamp;P1;durP1;ratioP1;P2;durP2;ratioP2
12441;SDS011;6285;48.804;9.220;2023-07-20T05:44:10;8.10;;;2.70;;
12441;SDS011;6285;48.804;9.220;2023-07-20T05:46:37;3.72;;;2.28;;
12441;SDS011;6285;48.804;9.220;2023-07-20T05:49:04;3.03;;;1.85;;
12441;SDS011;6285;48.804;9.220;2023-07-20T05:51:31;3.38;;;1.95;;
12441;SDS011;6285;48.804;9.220;2023-07-20T05:53:59;3.78;;;2.65;;
12441;SDS011;6285;48.804;9.220;2023-07-20T05:56:26;3.60;;;1.98;;
12441;SDS011;6285;48.804;9.220;2023-07-20T05:58:53;3.78;;;2.15;;
12441;SDS011;6285;48.804;9.220;2023-07-20T06:01:21;3.55;;;2.03;;
12441;SDS011;6285;48.804;9.220;2023-07-20T06:03:51;3.20;;;1.88;;
12441;SDS011;6285;48.804;9.220;2023-07-20T06:06:18;3.95;;;1.85;;
12441;SDS011;6285;48.804;9.220;2023-07-20T06:08:46;3.00;;;2.08;;
12441;SDS011;6285;48.804;9.220;2023-07-20T06:11:13;4.00;;;1.92;;
12441;SDS011;6285;48.804;9.220;2023-07-20T06:13:40;3.50;;;2.03;;
12441;SDS011;6285;48.804;9.220;2023-07-20T06:16:08;2.92;;;2.20;;
12441;SDS011;6285;48.804;9.220;2023-07-20T06:18:37;4.32;;;1.90;;
12441;SDS011;6285;48.804;9.220;2023-07-20T06:21:04;3.92;;;2.00;;
12441;SDS011;6285;48.804;9.220;2023-07-20T06:23:31;4.28;;;2.20;;
12441;SDS011;6285;48.804;9.220;2023-07-20T06:25:58;2.78;;;2.00;;
12441;SDS011;6285;48.804;9.220;2023-07-20T06:28:25;5.55;;;2.03;;
12441;SDS011;6285;48.804;9.220;2023-07-20T06:30:52;4.20;;;2.00;;
12441;SDS011;6285;48.804;9.220;2023-07-20T06:33:19;4.88;;;2.35;;
12441;SDS011;6285;48.804;9.220;2023-07-20T06:35:47;6.70;;;2.30;;
12441;SDS011;6285;48.804;9.220;2023-07-20T06:38:14;5.22;;;2.15;;
12441;SDS011;6285;48.804;9.220;2023-07-20T06:40:41;3.60;;;2.05;;
12441;SDS011;6285;48.804;9.220;2023-07-20T06:43:08;3.67;;;1.98;;
12441;SDS011;6285;48.804;9.220;2023-07-20T06:45:35;4.20;;;2.20;;
12441;SDS011;6285;48.804;9.220;2023-07-20T06:48:03;5.07;;;2.08;;
12441;SDS011;6285;48.804;9.220;2023-07-20T06:50:30;5.30;;;2.28;;
12441;SDS011;6285;48.804;9.220;2023-07-20T06:52:58;3.30;;;1.95;;
12441;SDS011;6285;48.804;9.220;2023-07-20T06:55:28;4.65;;;1.80;;
12441;SDS011;6285;48.804;9.220;2023-07-20T06:57:55;5.95;;;2.10;;
12441;SDS011;6285;48.804;9.220;2023-07-20T07:00:22;3.45;;;1.75;;
12441;SDS011;6285;48.804;9.220;2023-07-20T07:02:49;5.47;;;2.20;;
12441;SDS011;6285;48.804;9.220;2023-07-20T07:05:16;5.30;;;2.13;;
12441;SDS011;6285;48.804;9.220;2023-07-20T07:07:44;5.07;;;2.35;;
12441;SDS011;6285;48.804;9.220;2023-07-20T07:10:12;3.10;;;2.20;;
12441;SDS011;6285;48.804;9.220;2023-07-20T07:12:40;4.97;;;2.10;;
12441;SDS011;6285;48.804;9.220;2023-07-20T07:15:08;7.72;;;2.47;;
12441;SDS011;6285;48.804;9.220;2023-07-20T07:17:35;4.05;;;1.85;;
12441;SDS011;6285;48.804;9.220;2023-07-20T07:20:03;5.35;;;2.10;;
12441;SDS011;6285;48.804;9.220;2023-07-20T07:22:31;5.22;;;2.03;;
12441;SDS011;6285;48.804;9.220;2023-07-20T07:24:58;5.45;;;1.77;;
12441;SDS011;6285;48.804;9.220;2023-07-20T07:27:26;2.58;;;1.95;;
12441;SDS011;6285;48.804;9.220;2023-07-20T07:29:53;5.00;;;2.15;;
12441;SDS011;6285;48.804;9.220;2023-07-20T07:32:20;3.28;;;2.33;;
12441;SDS011;6285;48.804;9.220;2023-07-20T07:34:47;3.38;;;2.10;;
12441;SDS011;6285;48.804;9.220;2023-07-20T07:37:14;2.95;;;1.85;;
12441;SDS011;6285;48.804;9.220;2023-07-20T07:39:42;3.20;;;1.98;;
12441;SDS011;6285;48.804;9.220;2023-07-20T07:42:09;4.63;;;2.30;;
12441;SDS011;6285;48.804;9.220;2023-07-20T07:44:37;4.50;;;2.38;;
12441;SDS011;6285;48.804;9.220;2023-07-20T07:47:05;6.20;;;2.30;;
12441;SDS011;6285;48.804;9.220;2023-07-20T07:49:32;6.25;;;2.38;;
12441;SDS011;6285;48.804;9.220;2023-07-20T07:51:59;2.50;;;1.90;;
12441;SDS011;6285;48.804;9.220;2023-07-20T07:54:27;3.63;;;1.75;;
12441;SDS011;6285;48.804;9.220;2023-07-20T07:56:54;4.93;;;2.00;;
12441;SDS011;6285;48.804;9.220;2023-07-20T07:59:21;6.07;;;2.53;;
12441;SDS011;6285;48.804;9.220;2023-07-20T08:01:50;6.25;;;1.90;;
12441;SDS011;6285;48.804;9.220;2023-07-20T08:04:17;7.32;;;2.67;;
12441;SDS011;6285;48.804;9.220;2023-07-20T08:06:44;7.65;;;2.40;;
12441;SDS011;6285;48.804;9.220;2023-07-20T08:09:11;6.45;;;2.42;;
12441;SDS011;6285;48.804;9.220;2023-07-20T08:11:39;23.20;;;3.92;;
12441;SDS011;6285;48.804;9.220;2023-07-20T08:14:06;8.23;;;2.80;;
12441;SDS011;6285;48.804;9.220;2023-07-20T08:16:33;4.75;;;2.33;;
12441;SDS011;6285;48.804;9.220;2023-07-20T08:19:01;5.88;;;1.85;;
12441;SDS011;6285;48.804;9.220;2023-07-20T08:21:28;7.28;;;2.47;;
12441;SDS011;6285;48.804;9.220;2023-07-20T08:23:55;27.05;;;3.85;;
12441;SDS011;6285;48.804;9.220;2023-07-20T08:26:23;12.85;;;2.65;;
12441;SDS011;6285;48.804;9.220;2023-07-20T08:28:50;4.85;;;2.35;;
12441;SDS011;6285;48.804;9.220;2023-07-20T08:31:17;3.85;;;1.88;;
12441;SDS011;6285;48.804;9.220;2023-07-20T08:33:45;4.57;;;2.38;;
12441;SDS011;6285;48.804;9.220;2023-07-20T08:36:14;2.25;;;1.88;;
12441;SDS011;6285;48.804;9.220;2023-07-20T08:38:41;5.15;;;2.10;;
12441;SDS011;6285;48.804;9.220;2023-07-20T08:41:08;4.43;;;2.40;;
12441;SDS011;6285;48.804;9.220;2023-07-20T08:43:35;5.22;;;2.00;;
12441;SDS011;6285;48.804;9.220;2023-07-20T08:46:04;4.28;;;1.95;;
12441;SDS011;6285;48.804;9.220;2023-07-20T08:48:31;3.08;;;2.00;;
12441;SDS011;6285;48.804;9.220;2023-07-20T08:50:58;3.45;;;1.70;;
12441;SDS011;6285;48.804;9.220;2023-07-20T08:53:27;2.67;;;1.80;;
12441;SDS011;6285;48.804;9.220;2023-07-20T08:55:55;4.50;;;2.50;;
12441;SDS011;6285;48.804;9.220;2023-07-20T08:58:22;2.72;;;1.85;;
12441;SDS011;6285;48.804;9.220;2023-07-20T09:00:51;3.25;;;1.95;;
12441;SDS011;6285;48.804;9.220;2023-07-20T09:03:19;4.20;;;2.03;;
12441;SDS011;6285;48.804;9.220;2023-07-20T09:05:46;2.10;;;1.90;;
12441;SDS011;6285;48.804;9.220;2023-07-20T09:08:13;3.72;;;2.15;;
12441;SDS011;6285;48.804;9.220;2023-07-20T09:10:41;2.45;;;1.90;;
12441;SDS011;6285;48.804;9.220;2023-07-20T09:13:08;4.93;;;1.83;;
12441;SDS011;6285;48.804;9.220;2023-07-20T09:15:35;4.38;;;1.92;;
12441;SDS011;6285;48.804;9.220;2023-07-20T09:18:03;4.47;;;1.90;;
12441;SDS011;6285;48.804;9.220;2023-07-20T09:20:30;4.75;;;2.70;;
12441;SDS011;6285;48.804;9.220;2023-07-20T09:22:58;3.50;;;1.70;;
12441;SDS011;6285;48.804;9.220;2023-07-20T09:25:25;2.58;;;1.90;;
12441;SDS011;6285;48.804;9.220;2023-07-20T09:27:55;2.50;;;1.75;;
12441;SDS011;6285;48.804;9.220;2023-07-20T09:30:24;2.90;;;1.92;;
12441;SDS011;6285;48.804;9.220;2023-07-20T09:32:52;4.63;;;1.73;;
12441;SDS011;6285;48.804;9.220;2023-07-20T09:35:19;2.92;;;1.95;;
12441;SDS011;6285;48.804;9.220;2023-07-20T09:37:47;2.90;;;1.73;;
12441;SDS011;6285;48.804;9.220;2023-07-20T09:40:17;3.50;;;2.20;;
12441;SDS011;6285;48.804;9.220;2023-07-20T09:42:45;5.70;;;2.10;;
12441;SDS011;6285;48.804;9.220;2023-07-20T09:45:13;3.40;;;2.00;;
12441;SDS011;6285;48.804;9.220;2023-07-20T09:47:41;3.25;;;2.10;;
12441;SDS011;6285;48.804;9.220;2023-07-20T09:50:08;4.38;;;1.90;;
12441;SDS011;6285;48.804;9.220;2023-07-20T09:52:40;3.17;;;1.80;;
12441;SDS011;6285;48.804;9.220;2023-07-20T09:55:09;2.72;;;2.10;;
12441;SDS011;6285;48.804;9.220;2023-07-20T09:57:37;2.47;;;2.00;;
12441;SDS011;6285;48.804;9.220;2023-07-20T10:00:05;2.35;;;1.77;;
12441;SDS011;6285;48.804;9.220;2023-07-20T10:02:41;5.05;;;1.65;;
12441;SDS011;6285;48.804;9.220;2023-07-20T10:05:10;4.10;;;3.03;;
12441;SDS011;6285;48.804;9.220;2023-07-20T10:07:39;8.25;;;2.60;;
12441;SDS011;6285;48.804;9.220;2023-07-20T10:10:07;2.55;;;1.92;;
12441;SDS011;6285;48.804;9.220;2023-07-20T10:12:37;2.80;;;1.92;;
12441;SDS011;6285;48.804;9.220;2023-07-20T10:15:06;2.95;;;1.80;;
12441;SDS011;6285;48.804;9.220;2023-07-20T10:17:35;2.97;;;1.60;;
12441;SDS011;6285;48.804;9.220;2023-07-20T10:20:05;2.50;;;1.50;;
12441;SDS011;6285;48.804;9.220;2023-07-20T10:22:35;2.35;;;1.70;;
12441;SDS011;6285;48.804;9.220;2023-07-20T10:25:02;3.17;;;1.98;;
12441;SDS011;6285;48.804;9.220;2023-07-20T10:27:30;2.05;;;1.70;;
12441;SDS011;6285;48.804;9.220;2023-07-20T10:29:57;2.88;;;1.73;;
12441;SDS011;6285;48.804;9.220;2023-07-20T10:32:26;1.98;;;1.30;;
12441;SDS011;6285;48.804;9.220;2023-07-20T10:34:55;1.52;;;1.30;;
12441;SDS011;6285;48.804;9.220;2023-07-20T10:43:03;1.75;;;1.25;;
12441;SDS011;6285;48.804;9.220;2023-07-20T10:45:42;3.05;;;1.50;;
12441;SDS011;6285;48.804;9.220;2023-07-20T10:48:13;3.03;;;1.55;;
12441;SDS011;6285;48.804;9.220;2023-07-20T10:50:40;2.75;;;1.60;;
12441;SDS011;6285;48.804;9.220;2023-07-20T10:53:11;3.45;;;1.65;;
12441;SDS011;6285;48.804;9.220;2023-07-20T10:55:39;2.92;;;1.48;;
12441;SDS011;6285;48.804;9.220;2023-07-20T10:58:08;3.42;;;1.48;;
12441;SDS011;6285;48.804;9.220;2023-07-20T11:00:36;2.03;;;1.38;;
12441;SDS011;6285;48.804;9.220;2023-07-20T11:03:04;3.78;;;1.40;;
12441;SDS011;6285;48.804;9.220;2023-07-20T11:05:32;3.92;;;3.42;;
12441;SDS011;6285;48.804;9.220;2023-07-20T11:07:59;3.45;;;2.20;;
12441;SDS011;6285;48.804;9.220;2023-07-20T11:10:26;2.00;;;1.63;;
12441;SDS011;6285;48.804;9.220;2023-07-20T11:15:45;2.47;;;1.65;;
12441;SDS011;6285;48.804;9.220;2023-07-20T11:18:13;4.32;;;1.85;;
12441;SDS011;6285;48.804;9.220;2023-07-20T11:20:40;3.55;;;1.77;;
12441;SDS011;6285;48.804;9.220;2023-07-20T11:23:07;1.83;;;1.20;;
12441;SDS011;6285;48.804;9.220;2023-07-20T11:25:36;3.67;;;1.50;;
12441;SDS011;6285;48.804;9.220;2023-07-20T11:28:06;2.33;;;1.40;;
12441;SDS011;6285;48.804;9.220;2023-07-20T11:30:33;1.95;;;1.52;;
12441;SDS011;6285;48.804;9.220;2023-07-20T11:33:02;1.75;;;1.63;;
12441;SDS011;6285;48.804;9.220;2023-07-20T11:35:29;4.38;;;1.63;;
12441;SDS011;6285;48.804;9.220;2023-07-20T11:37:56;1.70;;;1.30;;
12441;SDS011;6285;48.804;9.220;2023-07-20T11:40:23;2.08;;;1.30;;
12441;SDS011;6285;48.804;9.220;2023-07-20T11:42:50;2.88;;;1.50;;
12441;SDS011;6285;48.804;9.220;2023-07-20T11:45:19;2.28;;;1.80;;
12441;SDS011;6285;48.804;9.220;2023-07-20T11:47:46;3.00;;;1.38;;
12441;SDS011;6285;48.804;9.220;2023-07-20T11:50:15;1.67;;;1.50;;
12441;SDS011;6285;48.804;9.220;2023-07-20T11:52:42;1.88;;;1.40;;
12441;SDS011;6285;48.804;9.220;2023-07-20T11:55:09;2.25;;;1.45;;
12441;SDS011;6285;48.804;9.220;2023-07-20T11:57:37;1.70;;;1.35;;
12441;SDS011;6285;48.804;9.220;2023-07-20T12:00:04;2.58;;;1.42;;
12441;SDS011;6285;48.804;9.220;2023-07-20T12:02:36;2.60;;;1.25;;
12441;SDS011;6285;48.804;9.220;2023-07-20T12:05:04;2.85;;;1.65;;
12441;SDS011;6285;48.804;9.220;2023-07-20T12:07:36;3.65;;;1.30;;
12441;SDS011;6285;48.804;9.220;2023-07-20T12:10:05;3.33;;;1.55;;
12441;SDS011;6285;48.804;9.220;2023-07-20T12:12:33;2.25;;;1.27;;
12441;SDS011;6285;48.804;9.220;2023-07-20T12:15:12;2.75;;;1.42;;
12441;SDS011;6285;48.804;9.220;2023-07-20T12:17:41;1.52;;;1.40;;
12441;SDS011;6285;48.804;9.220;2023-07-20T12:20:09;1.40;;;1.25;;
12441;SDS011;6285;48.804;9.220;2023-07-20T12:22:39;1.58;;;1.15;;
12441;SDS011;6285;48.804;9.220;2023-07-20T12:25:07;1.63;;;1.30;;
12441;SDS011;6285;48.804;9.220;2023-07-20T12:27:35;1.98;;;1.27;;
12441;SDS011;6285;48.804;9.220;2023-07-20T12:30:04;1.70;;;1.30;;
12441;SDS011;6285;48.804;9.220;2023-07-20T12:32:31;2.72;;;1.30;;
12441;SDS011;6285;48.804;9.220;2023-07-20T12:34:58;4.82;;;1.70;;
12441;SDS011;6285;48.804;9.220;2023-07-20T12:37:25;3.53;;;2.00;;
12441;SDS011;6285;48.804;9.220;2023-07-20T12:39:53;2.08;;;1.30;;
12441;SDS011;6285;48.804;9.220;2023-07-20T12:42:20;2.25;;;1.42;;
12441;SDS011;6285;48.804;9.220;2023-07-20T12:44:48;3.78;;;1.48;;
12441;SDS011;6285;48.804;9.220;2023-07-20T12:47:16;2.38;;;1.20;;
12441;SDS011;6285;48.804;9.220;2023-07-20T12:49:43;5.05;;;1.48;;
12441;SDS011;6285;48.804;9.220;2023-07-20T12:52:11;2.97;;;1.48;;
12441;SDS011;6285;48.804;9.220;2023-07-20T12:54:38;2.60;;;1.58;;
12441;SDS011;6285;48.804;9.220;2023-07-20T12:57:07;1.85;;;1.23;;
12441;SDS011;6285;48.804;9.220;2023-07-20T12:59:34;3.30;;;1.50;;
12441;SDS011;6285;48.804;9.220;2023-07-20T13:02:01;2.10;;;1.52;;
12441;SDS011;6285;48.804;9.220;2023-07-20T13:04:29;3.38;;;1.58;;
12441;SDS011;6285;48.804;9.220;2023-07-20T13:06:56;2.30;;;1.40;;
12441;SDS011;6285;48.804;9.220;2023-07-20T13:09:23;2.25;;;1.40;;
12441;SDS011;6285;48.804;9.220;2023-07-20T13:11:51;2.28;;;1.20;;
12441;SDS011;6285;48.804;9.220;2023-07-20T13:14:20;1.80;;;1.58;;
12441;SDS011;6285;48.804;9.220;2023-07-20T13:16:47;3.35;;;1.45;;
12441;SDS011;6285;48.804;9.220;2023-07-20T13:19:14;3.63;;;1.38;;
12441;SDS011;6285;48.804;9.220;2023-07-20T13:21:41;2.38;;;1.60;;
12441;SDS011;6285;48.804;9.220;2023-07-20T13:24:08;2.75;;;1.60;;
12441;SDS011;6285;48.804;9.220;2023-07-20T13:26:35;2.80;;;1.52;;
12441;SDS011;6285;48.804;9.220;2023-07-20T13:29:02;1.60;;;1.40;;
12441;SDS011;6285;48.804;9.220;2023-07-20T13:31:31;2.40;;;1.50;;
12441;SDS011;6285;48.804;9.220;2023-07-20T13:33:58;2.50;;;1.60;;
12441;SDS011;6285;48.804;9.220;2023-07-20T13:36:25;4.32;;;1.60;;
12441;SDS011;6285;48.804;9.220;2023-07-20T13:38:52;2.42;;;1.80;;
12441;SDS011;6285;48.804;9.220;2023-07-20T13:41:19;2.00;;;1.55;;
12441;SDS011;6285;48.804;9.220;2023-07-20T13:43:46;1.92;;;1.65;;
12441;SDS011;6285;48.804;9.220;2023-07-20T13:46:13;2.80;;;1.65;;
12441;SDS011;6285;48.804;9.220;2023-07-20T13:48:41;3.22;;;1.50;;
12441;SDS011;6285;48.804;9.220;2023-07-20T13:51:08;2.75;;;1.50;;
12441;SDS011;6285;48.804;9.220;2023-07-20T13:53:35;2.40;;;1.80;;
12441;SDS011;6285;48.804;9.220;2023-07-20T13:56:02;1.90;;;1.40;;
12441;SDS011;6285;48.804;9.220;2023-07-20T13:58:30;2.15;;;1.60;;
12441;SDS011;6285;48.804;9.220;2023-07-20T14:00:57;1.73;;;1.15;;
12441;SDS011;6285;48.804;9.220;2023-07-20T14:03:24;4.05;;;1.25;;
12441;SDS011;6285;48.804;9.220;2023-07-20T14:05:52;4.28;;;1.70;;
12441;SDS011;6285;48.804;9.220;2023-07-20T14:08:20;1.65;;;1.50;;
12441;SDS011;6285;48.804;9.220;2023-07-20T14:10:47;4.43;;;1.60;;
12441;SDS011;6285;48.804;9.220;2023-07-20T14:13:14;2.85;;;1.52;;
12441;SDS011;6285;48.804;9.220;2023-07-20T14:15:41;1.77;;;1.35;;
12441;SDS011;6285;48.804;9.220;2023-07-20T14:18:09;2.92;;;1.42;;
12441;SDS011;6285;48.804;9.220;2023-07-20T14:20:36;3.33;;;1.10;;
12441;SDS011;6285;48.804;9.220;2023-07-20T14:23:04;7.43;;;1.50;;
12441;SDS011;6285;48.804;9.220;2023-07-20T14:25:31;2.50;;;1.38;;
12441;SDS011;6285;48.804;9.220;2023-07-20T14:27:58;2.78;;;1.52;;
12441;SDS011;6285;48.804;9.220;2023-07-20T14:30:25;3.65;;;2.00;;
12441;SDS011;6285;48.804;9.220;2023-07-20T14:32:52;1.77;;;1.40;;
12441;SDS011;6285;48.804;9.220;2023-07-20T14:35:19;4.75;;;1.38;;
12441;SDS011;6285;48.804;9.220;2023-07-20T14:37:47;2.30;;;1.50;;
12441;SDS011;6285;48.804;9.220;2023-07-20T14:40:16;2.53;;;1.25;;
12441;SDS011;6285;48.804;9.220;2023-07-20T14:42:43;2.33;;;1.58;;
12441;SDS011;6285;48.804;9.220;2023-07-20T14:45:11;2.65;;;1.55;;
12441;SDS011;6285;48.804;9.220;2023-07-20T14:47:38;4.07;;;1.50;;
12441;SDS011;6285;48.804;9.220;2023-07-20T14:50:05;1.75;;;1.38;;
12441;SDS011;6285;48.804;9.220;2023-07-20T14:52:32;4.63;;;1.38;;
12441;SDS011;6285;48.804;9.220;2023-07-20T14:54:59;2.08;;;1.27;;
12441;SDS011;6285;48.804;9.220;2023-07-20T14:57:28;3.67;;;1.33;;
12441;SDS011;6285;48.804;9.220;2023-07-20T14:59:55;3.53;;;1.40;;
12441;SDS011;6285;48.804;9.220;2023-07-20T15:02:22;3.25;;;1.33;;
12441;SDS011;6285;48.804;9.220;2023-07-20T15:04:50;2.75;;;1.40;;
12441;SDS011;6285;48.804;9.220;2023-07-20T15:07:18;1.92;;;1.38;;
12441;SDS011;6285;48.804;9.220;2023-07-20T15:09:45;5.13;;;2.20;;
12441;SDS011;6285;48.804;9.220;2023-07-20T15:12:12;1.35;;;1.25;;
12441;SDS011;6285;48.804;9.220;2023-07-20T15:14:41;2.05;;;1.50;;
12441;SDS011;6285;48.804;9.220;2023-07-20T15:17:08;2.45;;;1.40;;
12441;SDS011;6285;48.804;9.220;2023-07-20T15:19:35;1.90;;;1.42;;
12441;SDS011;6285;48.804;9.220;2023-07-20T15:22:03;1.50;;;1.30;;
12441;SDS011;6285;48.804;9.220;2023-07-20T15:24:30;3.58;;;1.50;;
12441;SDS011;6285;48.804;9.220;2023-07-20T15:26:58;1.70;;;1.40;;
12441;SDS011;6285;48.804;9.220;2023-07-20T15:29:27;1.15;;;1.05;;
12441;SDS011;6285;48.804;9.220;2023-07-20T15:31:55;2.03;;;1.45;;
12441;SDS011;6285;48.804;9.220;2023-07-20T15:34:22;3.22;;;1.65;;
12441;SDS011;6285;48.804;9.220;2023-07-20T15:36:49;2.47;;;1.10;;
12441;SDS011;6285;48.804;9.220;2023-07-20T15:39:17;2.40;;;1.40;;
12441;SDS011;6285;48.804;9.220;2023-07-20T15:41:45;2.40;;;1.27;;
12441;SDS011;6285;48.804;9.220;2023-07-20T15:44:12;5.28;;;1.55;;
12441;SDS011;6285;48.804;9.220;2023-07-20T15:46:46;1.98;;;1.27;;
12441;SDS011;6285;48.804;9.220;2023-07-20T15:49:15;2.33;;;1.52;;
12441;SDS011;6285;48.804;9.220;2023-07-20T15:51:42;2.65;;;1.65;;
12441;SDS011;6285;48.804;9.220;2023-07-20T15:54:11;4.57;;;2.10;;
12441;SDS011;6285;48.804;9.220;2023-07-20T15:56:40;4.38;;;3.10;;
12441;SDS011;6285;48.804;9.220;2023-07-20T15:59:08;2.90;;;2.50;;
12441;SDS011;6285;48.804;9.220;2023-07-20T16:01:35;4.10;;;1.98;;
12441;SDS011;6285;48.804;9.220;2023-07-20T16:04:03;1.92;;;1.73;;
12441;SDS011;6285;48.804;9.220;2023-07-20T16:06:32;2.15;;;1.33;;
12441;SDS011;6285;48.804;9.220;2023-07-20T16:09:00;4.30;;;1.27;;
12441;SDS011;6285;48.804;9.220;2023-07-20T16:11:29;3.58;;;1.50;;
12441;SDS011;6285;48.804;9.220;2023-07-20T16:13:56;2.08;;;1.40;;
12441;SDS011;6285;48.804;9.220;2023-07-20T16:16:23;2.80;;;1.20;;
12441;SDS011;6285;48.804;9.220;2023-07-20T16:18:50;2.22;;;1.30;;
12441;SDS011;6285;48.804;9.220;2023-07-20T16:21:18;2.03;;;1.20;;
12441;SDS011;6285;48.804;9.220;2023-07-20T16:23:47;1.85;;;1.30;;
12441;SDS011;6285;48.804;9.220;2023-07-20T16:26:14;2.40;;;1.40;;
12441;SDS011;6285;48.804;9.220;2023-07-20T16:28:41;3.83;;;1.30;;
12441;SDS011;6285;48.804;9.220;2023-07-20T16:31:10;4.25;;;1.40;;
12441;SDS011;6285;48.804;9.220;2023-07-20T16:33:37;1.90;;;1.60;;
12441;SDS011;6285;48.804;9.220;2023-07-20T16:36:07;2.22;;;1.50;;
12441;SDS011;6285;48.804;9.220;2023-07-20T16:38:35;1.45;;;1.10;;
12441;SDS011;6285;48.804;9.220;2023-07-20T16:41:05;2.28;;;1.67;;
12441;SDS011;6285;48.804;9.220;2023-07-20T16:43:32;2.30;;;1.40;;
12441;SDS011;6285;48.804;9.220;2023-07-20T16:46:00;1.63;;;1.17;;
12441;SDS011;6285;48.804;9.220;2023-07-20T16:48:27;4.88;;;1.65;;
12441;SDS011;6285;48.804;9.220;2023-07-20T16:50:54;2.03;;;1.25;;
12441;SDS011;6285;48.804;9.220;2023-07-20T16:53:21;3.30;;;1.45;;
12441;SDS011;6285;48.804;9.220;2023-07-20T16:55:48;3.55;;;1.60;;
12441;SDS011;6285;48.804;9.220;2023-07-20T16:58:18;1.88;;;1.40;;
12441;SDS011;6285;48.804;9.220;2023-07-20T17:00:45;2.63;;;1.80;;
12441;SDS011;6285;48.804;9.220;2023-07-20T17:03:13;3.63;;;1.83;;
12441;SDS011;6285;48.804;9.220;2023-07-20T17:05:40;3.40;;;1.88;;
12441;SDS011;6285;48.804;9.220;2023-07-20T17:08:07;3.80;;;2.72;;
12441;SDS011;6285;48.804;9.220;2023-07-20T17:10:35;5.20;;;2.58;;
12441;SDS011;6285;48.804;9.220;2023-07-20T17:13:02;3.85;;;2.00;;
12441;SDS011;6285;48.804;9.220;2023-07-20T17:15:31;3.15;;;1.90;;
12441;SDS011;6285;48.804;9.220;2023-07-20T17:17:58;3.08;;;1.33;;
12441;SDS011;6285;48.804;9.220;2023-07-20T17:20:26;2.92;;;1.70;;
12441;SDS011;6285;48.804;9.220;2023-07-20T17:22:53;1.80;;;1.33;;
12441;SDS011;6285;48.804;9.220;2023-07-20T17:25:20;2.00;;;1.42;;
12441;SDS011;6285;48.804;9.220;2023-07-20T17:27:47;2.08;;;1.35;;
12441;SDS011;6285;48.804;9.220;2023-07-20T17:30:14;2.42;;;1.20;;
12441;SDS011;6285;48.804;9.220;2023-07-20T17:32:43;2.40;;;1.20;;
12441;SDS011;6285;48.804;9.220;2023-07-20T17:35:10;2.55;;;1.10;;
12441;SDS011;6285;48.804;9.220;2023-07-20T17:37:38;3.30;;;1.63;;
12441;SDS011;6285;48.804;9.220;2023-07-20T17:40:07;2.72;;;1.40;;
12441;SDS011;6285;48.804;9.220;2023-07-20T17:42:35;2.20;;;1.80;;
12441;SDS011;6285;48.804;9.220;2023-07-20T17:45:02;3.13;;;1.88;;
12441;SDS011;6285;48.804;9.220;2023-07-20T17:47:29;3.22;;;1.80;;
12441;SDS011;6285;48.804;9.220;2023-07-20T17:49:58;2.85;;;1.55;;
12441;SDS011;6285;48.804;9.220;2023-07-20T17:52:25;2.92;;;1.50;;
12441;SDS011;6285;48.804;9.220;2023-07-20T17:54:53;2.17;;;1.73;;
12441;SDS011;6285;48.804;9.220;2023-07-20T17:57:20;4.50;;;1.75;;
12441;SDS011;6285;48.804;9.220;2023-07-20T17:59:47;3.65;;;1.73;;
12441;SDS011;6285;48.804;9.220;2023-07-20T18:02:14;2.60;;;1.40;;
12441;SDS011;6285;48.804;9.220;2023-07-20T18:04:41;3.35;;;1.52;;
12441;SDS011;6285;48.804;9.220;2023-07-20T18:07:09;3.08;;;2.28;;
12441;SDS011;6285;48.804;9.220;2023-07-20T18:09:36;3.60;;;2.35;;
12441;SDS011;6285;48.804;9.220;2023-07-20T18:12:04;2.20;;;1.63;;
12441;SDS011;6285;48.804;9.220;2023-07-20T18:14:31;2.55;;;1.75;;
12441;SDS011;6285;48.804;9.220;2023-07-20T18:16:58;2.03;;;1.52;;
12441;SDS011;6285;48.804;9.220;2023-07-20T18:19:25;3.22;;;2.20;;
12441;SDS011;6285;48.804;9.220;2023-07-20T18:21:52;2.58;;;1.90;;
12441;SDS011;6285;48.804;9.220;2023-07-20T18:24:20;1.90;;;1.40;;
12441;SDS011;6285;48.804;9.220;2023-07-20T18:26:47;3.03;;;1.80;;
12441;SDS011;6285;48.804;9.220;2023-07-20T18:29:14;4.18;;;1.50;;
12441;SDS011;6285;48.804;9.220;2023-07-20T18:31:41;2.95;;;1.40;;
12441;SDS011;6285;48.804;9.220;2023-07-20T18:34:09;1.83;;;1.73;;
12441;SDS011;6285;48.804;9.220;2023-07-20T18:36:36;6.10;;;1.30;;
12441;SDS011;6285;48.804;9.220;2023-07-20T18:39:03;4.20;;;1.58;;
12441;SDS011;6285;48.804;9.220;2023-07-20T18:41:31;1.92;;;1.30;;
12441;SDS011;6285;48.804;9.220;2023-07-20T18:43:58;3.47;;;1.70;;
12441;SDS011;6285;48.804;9.220;2023-07-20T18:46:25;2.65;;;1.42;;
12441;SDS011;6285;48.804;9.220;2023-07-20T18:48:53;3.33;;;1.40;;
12441;SDS011;6285;48.804;9.220;2023-07-20T18:51:21;1.48;;;1.38;;
12441;SDS011;6285;48.804;9.220;2023-07-20T18:53:48;2.83;;;1.67;;
12441;SDS011;6285;48.804;9.220;2023-07-20T18:56:18;3.35;;;1.88;;
12441;SDS011;6285;48.804;9.220;2023-07-20T18:58:46;2.83;;;1.52;;
12441;SDS011;6285;48.804;9.220;2023-07-20T19:01:13;2.88;;;1.60;;
12441;SDS011;6285;48.804;9.220;2023-07-20T19:03:40;3.00;;;1.30;;
12441;SDS011;6285;48.804;9.220;2023-07-20T19:06:08;2.67;;;1.60;;
12441;SDS011;6285;48.804;9.220;2023-07-20T19:08:35;4.28;;;3.22;;
12441;SDS011;6285;48.804;9.220;2023-07-20T19:11:02;5.47;;;3.92;;
12441;SDS011;6285;48.804;9.220;2023-07-20T19:13:29;4.35;;;2.38;;
12441;SDS011;6285;48.804;9.220;2023-07-20T19:15:58;1.77;;;1.52;;
12441;SDS011;6285;48.804;9.220;2023-07-20T19:18:28;3.03;;;2.47;;
12441;SDS011;6285;48.804;9.220;2023-07-20T19:20:57;3.30;;;1.83;;
12441;SDS011;6285;48.804;9.220;2023-07-20T19:23:24;4.18;;;1.90;;
12441;SDS011;6285;48.804;9.220;2023-07-20T19:25:54;4.28;;;1.70;;
12441;SDS011;6285;48.804;9.220;2023-07-20T19:44:51;4.10;;;1.77;;
12441;SDS011;6285;48.804;9.220;2023-07-20T19:47:18;3.92;;;2.20;;
12441;SDS011;6285;48.804;9.220;2023-07-20T19:49:47;2.85;;;1.73;;
12441;SDS011;6285;48.804;9.220;2023-07-20T19:52:15;2.97;;;2.03;;
12441;SDS011;6285;48.804;9.220;2023-07-20T19:54:42;6.63;;;2.03;;
12441;SDS011;6285;48.804;9.220;2023-07-20T19:57:13;2.25;;;1.63;;
12441;SDS011;6285;48.804;9.220;2023-07-20T20:03:07;4.47;;;2.25;;
12441;SDS011;6285;48.804;9.220;2023-07-20T20:11:38;5.10;;;2.78;;
12441;SDS011;6285;48.804;9.220;2023-07-20T20:14:11;4.57;;;2.63;;
12441;SDS011;6285;48.804;9.220;2023-07-20T20:16:48;6.85;;;3.75;;
12441;SDS011;6285;48.804;9.220;2023-07-20T20:19:36;5.25;;;3.38;;
12441;SDS011;6285;48.804;9.220;2023-07-20T20:22:14;3.97;;;2.65;;
12441;SDS011;6285;48.804;9.220;2023-07-20T20:24:54;4.38;;;2.20;;
12441;SDS011;6285;48.804;9.220;2023-07-20T20:27:35;5.55;;;2.45;;
12441;SDS011;6285;48.804;9.220;2023-07-20T20:30:11;7.93;;;2.30;;
12441;SDS011;6285;48.804;9.220;2023-07-20T20:32:58;3.47;;;2.05;;
12441;SDS011;6285;48.804;9.220;2023-07-20T20:35:35;4.00;;;2.35;;
12441;SDS011;6285;48.804;9.220;2023-07-20T20:38:41;3.15;;;2.45;;
12441;SDS011;6285;48.804;9.220;2023-07-20T20:41:30;3.83;;;2.53;;
12441;SDS011;6285;48.804;9.220;2023-07-20T20:44:12;4.22;;;3.00;;
12441;SDS011;6285;48.804;9.220;2023-07-20T20:47:07;3.13;;;2.67;;
12441;SDS011;6285;48.804;9.220;2023-07-20T20:49:42;3.38;;;2.35;;
12441;SDS011;6285;48.804;9.220;2023-07-20T20:55:42;3.83;;;2.60;;
12441;SDS011;6285;48.804;9.220;2023-07-20T20:58:23;4.10;;;2.38;;
12441;SDS011;6285;48.804;9.220;2023-07-20T21:01:15;4.13;;;2.42;;
12441;SDS011;6285;48.804;9.220;2023-07-20T21:03:43;7.03;;;2.92;;
12441;SDS011;6285;48.804;9.220;2023-07-20T21:06:10;6.93;;;3.20;;
12441;SDS011;6285;48.804;9.220;2023-07-20T21:08:37;5.75;;;4.00;;
12441;SDS011;6285;48.804;9.220;2023-07-20T21:11:05;9.10;;;3.72;;
12441;SDS011;6285;48.804;9.220;2023-07-20T21:13:32;3.95;;;3.50;;
12441;SDS011;6285;48.804;9.220;2023-07-20T21:16:00;6.68;;;3.80;;
12441;SDS011;6285;48.804;9.220;2023-07-20T21:18:27;5.68;;;3.80;;
12441;SDS011;6285;48.804;9.220;2023-07-20T21:20:54;6.95;;;3.97;;
12441;SDS011;6285;48.804;9.220;2023-07-20T21:23:24;6.72;;;3.70;;
12441;SDS011;6285;48.804;9.220;2023-07-20T21:25:53;6.95;;;3.45;;
12441;SDS011;6285;48.804;9.220;2023-07-20T21:28:22;5.00;;;3.33;;